Bardera Airport


Codes: HCMD/BSY
Name: Bardera Airport
City:
Country: Somalia
Elevation: 4200 ft.
Wikipedia:

Photos at Bardera Airport


   Photos courtesy of SpottingLog. You can add your own sightings and photos by signing up for a free trial today.



No photos found.

Weather at Bardera Airport


Time (UTC)DescriptionTempratureWindCloud coverageVisibilityPressureHumidity
18-Apr-2024 00:00Broken Clouds28°C13 mph, S75%10000m1010hPa77%
18-Apr-2024 03:00Broken Clouds27°C11 mph, SW81%10000m1011hPa79%
18-Apr-2024 06:00Overcast Clouds29°C18 mph, SW89%10000m1012hPa71%
18-Apr-2024 09:00Overcast Clouds32°C18 mph, SW98%10000m1011hPa57%
18-Apr-2024 12:00Overcast Clouds35°C16 mph, SW95%10000m1008hPa46%
18-Apr-2024 15:00Light Rain32°C13 mph, S86%10000m1008hPa55%
18-Apr-2024 18:00Moderate Rain30°C16 mph, S87%10000m1011hPa63%
18-Apr-2024 21:00Light Rain28°C18 mph, S98%10000m1011hPa76%
19-Apr-2024 00:00Light Rain27°C13 mph, SW99%10000m1010hPa82%
19-Apr-2024 03:00Light Rain27°C13 mph, SW100%10000m1011hPa81%
19-Apr-2024 06:00Overcast Clouds28°C11 mph, SW100%10000m1013hPa75%
19-Apr-2024 09:00Light Rain30°C11 mph, W100%10000m1011hPa66%
19-Apr-2024 12:00Light Rain32°C11 mph, SW100%10000m1008hPa56%
19-Apr-2024 15:00Overcast Clouds31°C9 mph, S98%10000m1008hPa56%
19-Apr-2024 18:00Overcast Clouds29°C7 mph, S98%10000m1009hPa62%
19-Apr-2024 21:00Overcast Clouds27°C9 mph, S96%10000m1009hPa71%
20-Apr-2024 00:00Overcast Clouds27°C4 mph, SW95%10000m1008hPa75%
20-Apr-2024 03:00Broken Clouds26°C4 mph, SW78%10000m1009hPa80%
20-Apr-2024 06:00Broken Clouds30°C11 mph, SW78%10000m1010hPa64%
20-Apr-2024 09:00Overcast Clouds33°C13 mph, SW95%10000m1008hPa49%
20-Apr-2024 12:00Overcast Clouds35°C13 mph, SW95%10000m1005hPa42%
20-Apr-2024 15:00Overcast Clouds33°C9 mph, SW100%10000m1006hPa48%
20-Apr-2024 18:00Overcast Clouds31°C2 mph, SW100%10000m1007hPa54%
20-Apr-2024 21:00Overcast Clouds29°C13 mph, S98%10000m1008hPa71%
21-Apr-2024 00:00Overcast Clouds27°C11 mph, S96%10000m1008hPa80%
21-Apr-2024 03:00Broken Clouds27°C11 mph, S74%10000m1009hPa81%
21-Apr-2024 06:00Broken Clouds31°C16 mph, SW69%10000m1010hPa63%
21-Apr-2024 09:00Broken Clouds35°C16 mph, SW64%10000m1008hPa47%
21-Apr-2024 12:00Broken Clouds37°C11 mph, SW72%10000m1005hPa37%
21-Apr-2024 15:00Light Rain33°C9 mph, SW100%10000m1006hPa50%
21-Apr-2024 18:00Moderate Rain29°C11 mph, SE100%10000m1008hPa69%
21-Apr-2024 21:00Moderate Rain26°C9 mph, E100%6373m1009hPa87%
22-Apr-2024 00:00Heavy Intensity Rain25°C9 mph, E100%7353m1009hPa91%
22-Apr-2024 03:00Moderate Rain25°C0 mph, SE100%10000m1010hPa90%
22-Apr-2024 06:00Light Rain27°C9 mph, NW100%10000m1013hPa79%
22-Apr-2024 09:00Overcast Clouds31°C7 mph, W100%10000m1010hPa57%
22-Apr-2024 12:00Overcast Clouds32°C11 mph, W100%10000m1008hPa53%
22-Apr-2024 15:00Overcast Clouds30°C4 mph, SW99%10000m1008hPa60%
22-Apr-2024 18:00Overcast Clouds29°C4 mph, SW94%10000m1010hPa69%
22-Apr-2024 21:00Overcast Clouds28°C2 mph, W99%10000m1010hPa73%